createdAt,value
2023-02-09T00:01:14.743Z,23.38
2023-02-09T00:03:42.386Z,29.63
2023-02-09T00:06:12.917Z,22.47
2023-02-09T00:08:39.881Z,33.53
2023-02-09T00:11:09.499Z,37.78
2023-02-09T00:13:36.535Z,28.00
2023-02-09T00:16:04.332Z,28.40
2023-02-09T00:18:33.040Z,31.03
2023-02-09T00:21:03.117Z,24.52
2023-02-09T00:23:31.687Z,20.33
2023-02-09T00:26:00.411Z,28.73
2023-02-09T00:28:27.629Z,28.45
2023-02-09T00:30:55.178Z,28.07
2023-02-09T00:33:22.140Z,27.80
2023-02-09T00:35:49.730Z,21.67
2023-02-09T00:38:16.611Z,25.48
2023-02-09T00:40:44.176Z,21.83
2023-02-09T00:43:11.971Z,23.70
2023-02-09T00:45:39.153Z,17.02
2023-02-09T00:48:06.276Z,21.55
2023-02-09T00:50:33.522Z,20.98
2023-02-09T00:53:00.379Z,23.55
2023-02-09T00:55:27.587Z,22.03
2023-02-09T00:57:54.376Z,24.23
2023-02-09T01:00:21.684Z,37.05
2023-02-09T01:02:48.579Z,29.92
2023-02-09T01:05:15.857Z,25.10
2023-02-09T01:07:44.841Z,21.87
2023-02-09T01:10:11.991Z,35.08
2023-02-09T01:12:41.602Z,27.33
2023-02-09T01:15:09.999Z,26.65
2023-02-09T01:17:37.960Z,44.63
2023-02-09T01:20:07.153Z,26.53
2023-02-09T01:22:35.954Z,27.52
2023-02-09T01:25:05.009Z,29.27
2023-02-09T01:27:31.950Z,30.50
2023-02-09T01:30:00.108Z,28.42
2023-02-09T01:32:27.263Z,38.60
2023-02-09T01:34:56.293Z,28.75
2023-02-09T01:37:24.902Z,29.48
2023-02-09T01:39:52.045Z,29.67
2023-02-09T01:42:20.957Z,33.00
2023-02-09T01:45:33.214Z,41.00
2023-02-09T01:48:02.252Z,36.00
2023-02-09T01:50:33.829Z,40.53
2023-02-09T01:53:01.546Z,43.85
2023-02-09T01:55:32.603Z,27.23
2023-02-09T01:58:09.500Z,27.90
2023-02-09T02:00:36.693Z,24.38
2023-02-09T02:03:07.088Z,30.45
2023-02-09T02:05:37.447Z,29.25
2023-02-09T02:08:41.558Z,30.83
2023-02-09T02:11:09.748Z,28.97
2023-02-09T02:13:36.811Z,29.35
2023-02-09T02:16:24.731Z,27.98
2023-02-09T02:19:23.847Z,31.08
2023-02-09T02:22:17.051Z,29.08
2023-02-09T02:25:04.009Z,30.80
2023-02-09T02:28:08.276Z,28.60
2023-02-09T02:31:01.147Z,29.48
2023-02-09T02:33:59.676Z,27.90
2023-02-09T02:36:52.300Z,21.63
2023-02-09T02:39:27.314Z,21.37
2023-02-09T02:42:24.331Z,19.25
2023-02-09T02:45:13.610Z,15.00
2023-02-09T02:47:46.224Z,18.40
2023-02-09T02:50:18.784Z,19.27
2023-02-09T02:52:48.271Z,17.87
2023-02-09T02:55:18.354Z,29.35
2023-02-09T02:57:49.341Z,30.02
2023-02-09T03:00:23.481Z,42.25
2023-02-09T03:02:54.566Z,28.63
2023-02-09T03:05:24.338Z,45.67
2023-02-09T03:07:51.848Z,47.85
2023-02-09T03:10:39.935Z,44.08
2023-02-09T03:13:28.613Z,30.67
2023-02-09T03:16:06.173Z,24.95
2023-02-09T03:18:51.924Z,29.10
2023-02-09T03:21:25.100Z,32.05
2023-02-09T03:24:03.395Z,31.95
2023-02-09T03:26:41.368Z,34.05
2023-02-09T03:29:09.626Z,27.00
2023-02-09T03:31:38.337Z,32.10
2023-02-09T03:34:06.314Z,31.95
2023-02-09T03:36:37.466Z,28.23
2023-02-09T03:39:05.033Z,30.98
2023-02-09T03:41:32.399Z,27.13
2023-02-09T03:44:17.958Z,36.87
2023-02-09T03:46:45.223Z,29.90
2023-02-09T03:49:15.031Z,28.98
2023-02-09T03:51:43.216Z,29.60
2023-02-09T03:54:10.110Z,27.35
2023-02-09T03:56:55.653Z,26.83
2023-02-09T03:59:23.245Z,31.90
2023-02-09T04:01:50.382Z,31.05
2023-02-09T04:04:17.222Z,31.13
2023-02-09T04:06:44.472Z,27.75
2023-02-09T04:09:11.719Z,27.33
2023-02-09T04:11:38.941Z,22.77
2023-02-09T04:14:06.436Z,27.35
2023-02-09T04:16:33.899Z,28.60
2023-02-09T04:19:00.816Z,27.13
2023-02-09T04:21:27.974Z,29.13
2023-02-09T04:23:54.783Z,25.73
2023-02-09T04:26:22.006Z,24.13
2023-02-09T04:28:48.967Z,33.53
2023-02-09T04:31:16.457Z,33.10
2023-02-09T04:33:43.349Z,46.47
2023-02-09T04:36:11.165Z,50.30
2023-02-09T04:38:38.043Z,47.72
2023-02-09T04:41:05.567Z,45.50
2023-02-09T04:43:33.088Z,49.70
2023-02-09T04:46:00.873Z,36.43
2023-02-09T04:48:29.442Z,54.33
2023-02-09T04:50:56.626Z,37.30
2023-02-09T04:53:24.817Z,38.30
2023-02-09T04:55:52.309Z,30.08
2023-02-09T04:58:38.645Z,23.33
2023-02-09T05:01:06.978Z,20.52
2023-02-09T05:03:34.510Z,16.27
2023-02-09T05:06:04.929Z,14.70
2023-02-09T05:08:32.321Z,17.55
2023-02-09T05:10:59.849Z,20.67
2023-02-09T05:13:27.288Z,19.45
2023-02-09T05:15:55.006Z,20.67
2023-02-09T05:18:22.991Z,17.65
2023-02-09T05:20:50.685Z,29.67
2023-02-09T05:23:17.828Z,21.73
2023-02-09T05:25:45.905Z,17.30
2023-02-09T05:28:12.939Z,16.45
2023-02-09T05:30:40.136Z,19.63
2023-02-09T05:33:06.983Z,16.70
2023-02-09T05:35:34.301Z,13.60
2023-02-09T05:38:01.116Z,13.23
2023-02-09T05:40:28.271Z,15.73
2023-02-09T05:42:55.314Z,15.82
2023-02-09T05:45:23.470Z,16.75
2023-02-09T05:47:50.333Z,13.77
2023-02-09T05:50:17.542Z,14.30
2023-02-09T05:52:45.226Z,18.25
2023-02-09T05:55:12.363Z,19.10
2023-02-09T05:57:39.282Z,15.73
2023-02-09T06:00:07.241Z,16.17
2023-02-09T06:02:39.836Z,17.07
2023-02-09T06:05:07.410Z,17.88
2023-02-09T06:07:34.262Z,15.95
2023-02-09T06:10:01.599Z,11.63
2023-02-09T06:12:28.487Z,13.13
2023-02-09T06:14:55.602Z,49.17
2023-02-09T06:17:22.810Z,44.72
2023-02-09T06:19:49.950Z,49.47
2023-02-09T06:22:16.726Z,48.08
2023-02-09T06:24:43.918Z,54.08
2023-02-09T06:27:12.660Z,42.20
2023-02-09T06:29:40.568Z,32.97
2023-02-09T06:32:07.542Z,26.02
2023-02-09T06:34:34.820Z,20.25
2023-02-09T06:37:01.661Z,17.17
2023-02-09T06:39:29.724Z,17.60
2023-02-09T06:41:56.536Z,19.08
2023-02-09T06:44:23.805Z,17.25
2023-02-09T06:46:50.656Z,16.20
2023-02-09T06:49:18.909Z,12.73
2023-02-09T06:51:45.937Z,14.63
2023-02-09T06:54:13.143Z,15.70
2023-02-09T06:56:40.095Z,16.58
2023-02-09T06:59:07.208Z,39.30
2023-02-09T07:01:34.066Z,39.88
2023-02-09T07:04:01.748Z,43.97
2023-02-09T07:06:28.600Z,41.53
2023-02-09T07:08:55.811Z,83.90
2023-02-09T07:11:22.845Z,85.97
2023-02-09T07:13:50.057Z,63.65
2023-02-09T07:16:17.346Z,40.37
2023-02-09T07:18:44.672Z,38.83
2023-02-09T07:21:15.730Z,55.42
2023-02-09T07:23:42.921Z,64.57
2023-02-09T07:26:15.299Z,49.03
2023-02-09T07:28:43.031Z,57.03
2023-02-09T07:31:12.363Z,53.63
2023-02-09T07:33:40.005Z,42.47
2023-02-09T07:36:09.673Z,49.67
2023-02-09T07:38:37.762Z,41.72
2023-02-09T07:41:06.938Z,40.73
2023-02-09T07:43:34.626Z,45.03
2023-02-09T07:46:04.030Z,57.70
2023-02-09T07:48:31.955Z,49.63
2023-02-09T07:50:59.163Z,38.35
2023-02-09T07:53:26.858Z,39.73
2023-02-09T07:55:53.793Z,43.17
2023-02-09T07:58:22.064Z,38.30
2023-02-09T08:00:50.916Z,37.55
2023-02-09T08:03:21.209Z,49.45
2023-02-09T08:06:00.655Z,41.93
2023-02-09T08:08:28.022Z,39.42
2023-02-09T08:10:56.809Z,41.95
2023-02-09T08:13:26.021Z,56.83
2023-02-09T08:15:58.901Z,50.95
2023-02-09T08:18:32.594Z,54.43
2023-02-09T08:20:59.428Z,47.92
2023-02-09T08:23:33.660Z,45.80
2023-02-09T08:26:07.776Z,44.03
2023-02-09T08:28:43.721Z,43.38
2023-02-09T08:31:17.310Z,45.03
2023-02-09T08:33:46.482Z,40.50
2023-02-09T08:36:14.408Z,41.53
2023-02-09T08:38:41.977Z,38.90
2023-02-09T08:41:11.462Z,38.50
2023-02-09T08:43:39.170Z,38.47
2023-02-09T08:46:08.889Z,39.30
2023-02-09T08:48:38.255Z,51.72
2023-02-09T08:51:06.800Z,39.65
2023-02-09T08:53:34.057Z,37.90
2023-02-09T08:56:00.934Z,33.33
2023-02-09T08:58:30.265Z,33.50
2023-02-09T09:00:57.391Z,29.20
2023-02-09T09:03:30.153Z,32.25
2023-02-09T09:05:58.582Z,32.28
2023-02-09T09:08:25.968Z,33.60
2023-02-09T09:10:52.785Z,32.00
2023-02-09T09:13:21.210Z,30.45
2023-02-09T09:15:48.348Z,29.88
2023-02-09T09:18:15.970Z,36.63
2023-02-09T09:20:43.176Z,45.10
2023-02-09T09:23:10.998Z,39.33
2023-02-09T09:25:41.272Z,38.58
2023-02-09T09:28:09.441Z,39.30
2023-02-09T09:30:36.905Z,34.97
2023-02-09T09:33:04.623Z,41.83
2023-02-09T09:35:31.987Z,48.78
2023-02-09T09:37:59.400Z,45.50
2023-02-09T09:40:34.668Z,41.50
2023-02-09T09:43:05.086Z,44.60
2023-02-09T09:45:35.410Z,47.43
2023-02-09T09:48:02.906Z,37.78
2023-02-09T09:50:38.510Z,38.40
2023-02-09T09:53:33.321Z,35.50
2023-02-09T09:56:07.575Z,39.45
2023-02-09T09:58:39.317Z,37.27
2023-02-09T10:01:06.885Z,42.63
2023-02-09T10:03:34.052Z,39.17
2023-02-09T10:06:09.987Z,36.78
2023-02-09T10:08:55.285Z,36.17
2023-02-09T10:11:29.045Z,38.13
2023-02-09T10:13:58.020Z,37.83
2023-02-09T10:16:26.784Z,43.25
2023-02-09T10:19:05.914Z,37.83
2023-02-09T10:21:36.008Z,38.15
2023-02-09T10:24:12.996Z,36.93
2023-02-09T10:26:42.957Z,43.50
2023-02-09T10:29:13.199Z,42.03
2023-02-09T10:31:44.757Z,38.63
2023-02-09T10:34:17.553Z,41.60
2023-02-09T10:36:50.831Z,42.47
2023-02-09T10:39:31.257Z,38.10
2023-02-09T10:42:37.629Z,37.00
2023-02-09T10:45:24.941Z,34.85
2023-02-09T10:48:01.292Z,46.78
2023-02-09T10:50:29.192Z,42.30
2023-02-09T10:52:57.491Z,41.55
2023-02-09T10:55:35.030Z,47.30
2023-02-09T10:58:18.411Z,43.35
2023-02-09T11:00:59.649Z,38.63
2023-02-09T11:03:27.455Z,42.93
2023-02-09T11:06:03.501Z,43.30
2023-02-09T11:08:42.506Z,41.13
2023-02-09T11:11:30.623Z,48.75
2023-02-09T11:13:58.170Z,45.33
2023-02-09T11:16:50.085Z,40.53
2023-02-09T11:19:22.579Z,41.75
2023-02-09T11:22:31.256Z,36.67
2023-02-09T11:25:27.782Z,43.13
2023-02-09T11:28:04.100Z,42.15
2023-02-09T11:30:51.433Z,38.63
2023-02-09T11:33:46.971Z,42.72
2023-02-09T11:36:32.252Z,52.25
2023-02-09T11:39:03.244Z,44.17
2023-02-09T11:41:54.865Z,41.22
2023-02-09T11:44:34.854Z,47.67
2023-02-09T11:47:06.139Z,42.08
2023-02-09T11:49:44.632Z,46.67
2023-02-09T11:52:20.477Z,43.85
2023-02-09T11:54:52.183Z,52.97
2023-02-09T11:57:33.301Z,61.17
2023-02-09T12:00:03.436Z,54.25
2023-02-09T12:02:54.796Z,43.83
2023-02-09T12:05:23.316Z,50.92
2023-02-09T12:08:32.830Z,45.70
2023-02-09T12:11:24.269Z,53.27
2023-02-09T12:14:15.869Z,44.45
2023-02-09T12:16:47.871Z,53.72
2023-02-09T12:19:32.831Z,51.60
2023-02-09T12:22:35.055Z,47.55
2023-02-09T12:25:18.044Z,46.13
2023-02-09T12:28:16.974Z,44.17
2023-02-09T12:30:44.049Z,61.63
2023-02-09T12:33:20.557Z,49.53
2023-02-09T12:36:09.194Z,46.45
2023-02-09T12:39:07.897Z,41.47
2023-02-09T12:41:35.076Z,43.38
2023-02-09T12:44:11.898Z,44.42
2023-02-09T12:46:44.762Z,38.92
2023-02-09T12:49:11.928Z,43.22
2023-02-09T12:51:56.135Z,46.97
2023-02-09T12:54:48.069Z,48.13
2023-02-09T12:57:15.021Z,40.05
2023-02-09T13:00:00.411Z,48.53
2023-02-09T13:02:30.133Z,50.90
2023-02-09T13:05:07.357Z,48.57
2023-02-09T13:07:34.138Z,44.40
2023-02-09T13:10:09.081Z,40.45
2023-02-09T13:12:42.667Z,41.33
2023-02-09T13:15:15.282Z,53.95
2023-02-09T13:18:05.537Z,44.57
2023-02-09T13:20:38.901Z,36.22
2023-02-09T13:23:41.516Z,41.13
2023-02-09T13:26:23.966Z,46.55
2023-02-09T13:29:21.210Z,37.38
2023-02-09T13:32:07.899Z,39.60
2023-02-09T13:35:06.490Z,41.17
2023-02-09T13:37:48.959Z,52.05
2023-02-09T13:40:22.363Z,45.90
2023-02-09T13:43:11.402Z,43.17
2023-02-09T13:45:52.817Z,39.30
2023-02-09T13:48:22.713Z,36.03
2023-02-09T13:50:51.255Z,33.92
2023-02-09T13:53:22.789Z,46.53
2023-02-09T13:55:52.008Z,46.55
2023-02-09T13:58:23.498Z,40.43
2023-02-09T14:00:54.644Z,39.33
2023-02-09T14:03:24.880Z,36.67
2023-02-09T14:06:00.701Z,34.38
2023-02-09T14:08:29.877Z,44.80
2023-02-09T14:11:24.397Z,34.07
2023-02-09T14:14:01.190Z,33.58
2023-02-09T14:16:29.236Z,39.17
2023-02-09T14:19:03.963Z,36.08
2023-02-09T14:21:40.220Z,41.90
2023-02-09T14:24:22.932Z,37.17
2023-02-09T14:27:00.795Z,38.95
2023-02-09T14:29:30.820Z,36.97
2023-02-09T14:32:07.042Z,40.08
2023-02-09T14:34:37.614Z,45.38
2023-02-09T14:37:13.720Z,36.63
2023-02-09T14:40:04.584Z,35.05
2023-02-09T14:42:33.617Z,33.92
2023-02-09T14:45:22.075Z,35.22
2023-02-09T14:47:49.308Z,39.53
2023-02-09T14:50:19.100Z,42.60
2023-02-09T14:52:47.812Z,34.90
2023-02-09T14:55:27.866Z,39.20
2023-02-09T14:57:54.711Z,38.95
2023-02-09T15:00:24.688Z,32.80
2023-02-09T15:02:53.197Z,45.37
2023-02-09T15:05:22.960Z,32.42
2023-02-09T15:07:53.618Z,38.78
2023-02-09T15:10:28.464Z,33.10
2023-02-09T15:12:56.564Z,38.47
2023-02-09T15:15:25.578Z,36.60
2023-02-09T15:17:55.066Z,35.05
2023-02-09T15:20:26.534Z,29.60
2023-02-09T15:22:55.116Z,33.70
2023-02-09T15:25:23.975Z,30.85
2023-02-09T15:28:01.555Z,30.97
2023-02-09T15:30:33.816Z,27.15
2023-02-09T15:33:01.986Z,24.75
2023-02-09T15:35:29.844Z,31.38
2023-02-09T15:38:01.638Z,33.85
2023-02-09T15:41:01.143Z,32.10
2023-02-09T15:43:46.600Z,28.50
2023-02-09T15:46:32.854Z,28.13
2023-02-09T15:49:00.524Z,28.13
2023-02-09T15:51:33.934Z,24.92
2023-02-09T15:54:04.360Z,26.40
2023-02-09T15:56:31.698Z,25.38
2023-02-09T15:59:03.815Z,25.23
2023-02-09T16:01:35.093Z,28.15
2023-02-09T16:04:13.500Z,32.13
2023-02-09T16:06:50.589Z,27.77
2023-02-09T16:09:20.977Z,27.88
2023-02-09T16:11:48.612Z,28.00
2023-02-09T16:14:17.780Z,30.27
2023-02-09T16:16:45.953Z,25.98
2023-02-09T16:19:13.627Z,26.57
2023-02-09T16:21:51.041Z,24.52
2023-02-09T16:24:23.984Z,29.98
2023-02-09T16:26:51.370Z,28.20
2023-02-09T16:29:18.291Z,26.25
2023-02-09T16:31:46.108Z,23.27
2023-02-09T16:34:15.698Z,26.38
2023-02-09T16:36:43.186Z,23.38
2023-02-09T16:39:18.341Z,28.08
2023-02-09T16:41:47.138Z,22.33
2023-02-09T16:44:25.988Z,27.23
2023-02-09T16:46:55.284Z,25.48
2023-02-09T16:49:36.502Z,28.23
2023-02-09T16:52:20.809Z,22.85
2023-02-09T16:54:50.813Z,27.63
2023-02-09T16:57:20.145Z,25.60
2023-02-09T16:59:47.322Z,27.67
2023-02-09T17:02:29.892Z,24.58
2023-02-09T17:04:58.108Z,22.85
2023-02-09T17:07:30.248Z,26.58
2023-02-09T17:09:57.638Z,26.23
2023-02-09T17:12:24.866Z,29.55
2023-02-09T17:14:51.683Z,22.58
2023-02-09T17:17:21.601Z,25.52
2023-02-09T17:19:50.079Z,24.92
2023-02-09T17:22:17.590Z,24.50
2023-02-09T17:24:47.223Z,23.55
2023-02-09T17:27:14.704Z,24.70
2023-02-09T17:29:41.593Z,23.35
2023-02-09T17:32:14.471Z,26.60
2023-02-09T17:34:42.610Z,27.50
2023-02-09T17:37:14.658Z,24.67
2023-02-09T17:39:42.278Z,22.52
2023-02-09T17:42:21.188Z,23.25
2023-02-09T17:44:48.645Z,21.23
2023-02-09T17:47:17.717Z,25.87
2023-02-09T17:49:45.089Z,25.90
2023-02-09T17:52:17.698Z,26.08
2023-02-09T17:54:44.742Z,23.30
2023-02-09T17:57:17.034Z,23.38
2023-02-09T17:59:46.930Z,24.73
2023-02-09T18:02:16.783Z,31.85
2023-02-09T18:04:45.051Z,44.47
2023-02-09T18:07:14.646Z,67.20
2023-02-09T18:09:44.740Z,64.13
2023-02-09T18:12:21.564Z,47.70
2023-02-09T18:14:51.110Z,36.15
2023-02-09T18:17:19.676Z,30.75
2023-02-09T18:19:46.492Z,25.33
2023-02-09T18:22:17.326Z,26.02
2023-02-09T18:24:49.620Z,25.20
2023-02-09T18:27:21.175Z,29.38
2023-02-09T18:29:48.675Z,26.63
2023-02-09T18:32:17.062Z,24.13
2023-02-09T18:34:44.586Z,25.13
2023-02-09T18:37:14.177Z,23.40
2023-02-09T18:39:46.208Z,40.67
2023-02-09T18:42:15.438Z,32.53
2023-02-09T18:44:43.001Z,28.90
2023-02-09T18:47:14.044Z,32.40
2023-02-09T18:49:41.631Z,42.10
2023-02-09T18:52:10.435Z,49.60
2023-02-09T18:54:37.939Z,36.33
2023-02-09T18:57:05.878Z,56.88
2023-02-09T18:59:33.031Z,49.55
2023-02-09T19:02:00.676Z,32.13
2023-02-09T19:04:29.307Z,31.20
2023-02-09T19:06:58.741Z,33.42
2023-02-09T19:09:26.312Z,32.20
2023-02-09T19:11:54.749Z,26.73
2023-02-09T19:14:37.498Z,24.80
2023-02-09T19:17:13.816Z,22.58
2023-02-09T19:19:41.581Z,25.23
2023-02-09T19:22:10.577Z,24.50
2023-02-09T19:24:40.492Z,23.75
2023-02-09T19:27:09.495Z,28.30
2023-02-09T19:29:39.484Z,31.55
2023-02-09T19:32:12.806Z,29.70
2023-02-09T19:34:43.239Z,28.88
2023-02-09T19:37:12.362Z,29.00
2023-02-09T19:39:41.605Z,30.17
2023-02-09T19:42:10.664Z,72.30
2023-02-09T19:44:38.214Z,75.07
2023-02-09T19:47:08.135Z,84.30
2023-02-09T19:49:35.818Z,77.75
2023-02-09T19:52:06.591Z,70.50
2023-02-09T19:54:35.261Z,72.65
2023-02-09T19:57:04.442Z,80.18
2023-02-09T19:59:32.366Z,76.30
2023-02-09T20:02:00.726Z,80.28
2023-02-09T20:04:29.218Z,92.13
2023-02-09T20:06:59.678Z,91.72
2023-02-09T20:09:27.329Z,70.28
2023-02-09T20:14:25.363Z,43.78
2023-02-09T20:16:54.419Z,62.33
2023-02-09T20:19:22.902Z,86.28
2023-02-09T20:22:05.206Z,59.03
2023-02-09T20:24:34.731Z,47.45
2023-02-09T20:27:02.705Z,39.67
2023-02-09T20:29:29.890Z,40.30
2023-02-09T20:31:57.499Z,36.92
2023-02-09T20:34:25.724Z,34.55
2023-02-09T20:36:52.656Z,43.05
2023-02-09T20:39:22.350Z,37.80
2023-02-09T20:42:15.269Z,33.87
2023-02-09T20:45:02.291Z,43.38
2023-02-09T20:47:30.283Z,68.78
2023-02-09T20:50:00.392Z,75.78
2023-02-09T20:52:29.331Z,78.28
2023-02-09T20:54:57.566Z,67.27
2023-02-09T20:57:29.474Z,78.68
2023-02-09T21:00:00.933Z,62.47
2023-02-09T21:02:28.400Z,63.03
2023-02-09T21:04:57.075Z,48.60
2023-02-09T21:07:25.478Z,38.80
2023-02-09T21:09:54.969Z,27.67
2023-02-09T21:12:22.085Z,26.10
2023-02-09T21:14:50.886Z,23.60
2023-02-09T21:17:19.612Z,27.40
2023-02-09T21:19:48.614Z,82.40
2023-02-09T21:22:16.829Z,73.32
2023-02-09T21:24:45.399Z,43.55
2023-02-09T21:27:13.330Z,33.13
2023-02-09T21:29:41.150Z,28.45
2023-02-09T21:32:08.686Z,23.27
2023-02-09T21:34:36.518Z,24.85
2023-02-09T21:37:03.364Z,23.45
2023-02-09T21:39:31.592Z,26.25
2023-02-09T21:42:17.149Z,22.75
2023-02-09T21:44:44.283Z,21.43
2023-02-09T21:47:11.489Z,23.10
2023-02-09T21:49:38.781Z,26.48
2023-02-09T21:52:06.000Z,22.13
2023-02-09T21:54:34.028Z,24.23
2023-02-09T21:57:01.499Z,23.63
2023-02-09T21:59:29.598Z,27.25
2023-02-09T22:01:56.459Z,22.17
2023-02-09T22:04:24.119Z,20.33
2023-02-09T22:06:51.138Z,21.48
2023-02-09T22:09:20.302Z,27.10
2023-02-09T22:11:47.154Z,19.25
2023-02-09T22:14:14.330Z,23.25
2023-02-09T22:16:42.589Z,20.13
2023-02-09T22:19:09.867Z,19.92
2023-02-09T22:21:36.655Z,23.27
2023-02-09T22:24:04.083Z,25.20
2023-02-09T22:26:31.598Z,28.50
2023-02-09T22:28:58.703Z,22.05
2023-02-09T22:31:25.478Z,28.98
2023-02-09T22:33:54.135Z,25.93
2023-02-09T22:36:22.030Z,24.67
2023-02-09T22:38:49.301Z,47.40
2023-02-09T22:41:22.812Z,35.60
2023-02-09T22:43:54.731Z,57.65
2023-02-09T22:46:24.030Z,48.80
2023-02-09T22:48:52.592Z,64.25
2023-02-09T22:51:20.482Z,50.22
2023-02-09T22:53:47.796Z,63.47
2023-02-09T22:56:14.908Z,48.72
2023-02-09T22:58:42.611Z,60.93
2023-02-09T23:01:10.559Z,64.70
2023-02-09T23:03:38.098Z,49.08
2023-02-09T23:06:12.136Z,41.40
2023-02-09T23:08:39.459Z,34.65
2023-02-09T23:11:09.282Z,69.93
2023-02-09T23:13:37.978Z,64.05
2023-02-09T23:16:08.754Z,71.15
2023-02-09T23:18:36.537Z,49.00
2023-02-09T23:21:06.753Z,40.13
2023-02-09T23:23:34.437Z,36.40
2023-02-09T23:26:01.232Z,29.52
2023-02-09T23:28:28.682Z,30.10
2023-02-09T23:30:55.708Z,24.95
2023-02-09T23:33:23.315Z,24.38
2023-02-09T23:35:50.185Z,28.70
2023-02-09T23:38:18.587Z,21.95
2023-02-09T23:40:45.733Z,20.70
2023-02-09T23:43:12.924Z,22.60
2023-02-09T23:45:39.781Z,23.25
2023-02-09T23:48:07.192Z,24.43
2023-02-09T23:50:34.019Z,22.13
2023-02-09T23:53:01.152Z,20.60
2023-02-09T23:55:27.955Z,22.05
2023-02-09T23:57:55.100Z,19.15
